createdAt,value
2022-11-22T00:00:08.817Z,0.60
2022-11-22T00:02:38.688Z,0.93
2022-11-22T00:05:10.138Z,0.90
2022-11-22T00:07:39.192Z,1.42
2022-11-22T00:10:09.335Z,0.95
2022-11-22T00:12:38.651Z,0.57
2022-11-22T00:15:09.971Z,0.60
2022-11-22T00:17:42.416Z,0.85
2022-11-22T00:20:14.232Z,0.85
2022-11-22T00:22:45.005Z,0.82
2022-11-22T00:25:14.826Z,0.50
2022-11-22T00:27:43.879Z,1.30
2022-11-22T00:30:13.390Z,0.95
2022-11-22T00:32:42.588Z,0.50
2022-11-22T00:35:13.387Z,0.55
2022-11-22T00:37:42.579Z,0.75
2022-11-22T00:40:12.162Z,0.70
2022-11-22T00:42:41.276Z,0.70
2022-11-22T00:45:10.736Z,0.60
2022-11-22T00:47:39.819Z,0.63
2022-11-22T00:50:09.007Z,0.60
2022-11-22T00:52:39.526Z,1.00
2022-11-22T00:55:09.255Z,0.93
2022-11-22T00:57:38.616Z,0.70
2022-11-22T01:00:08.680Z,0.47
2022-11-22T01:02:37.621Z,0.75
2022-11-22T01:05:08.185Z,0.45
2022-11-22T01:07:37.200Z,1.13
2022-11-22T01:10:08.333Z,0.50
2022-11-22T01:12:38.527Z,0.60
2022-11-22T01:15:08.504Z,0.50
2022-11-22T01:17:37.515Z,0.95
2022-11-22T01:20:07.323Z,0.73
2022-11-22T01:22:36.354Z,0.82
2022-11-22T01:25:05.611Z,0.30
2022-11-22T01:27:35.925Z,0.98
2022-11-22T01:30:05.489Z,0.77
2022-11-22T01:32:35.101Z,0.63
2022-11-22T01:35:04.850Z,0.93
2022-11-22T01:37:33.815Z,0.75
2022-11-22T01:40:02.749Z,0.32
2022-11-22T01:42:43.915Z,0.45
2022-11-22T01:45:32.481Z,0.50
2022-11-22T01:48:04.158Z,0.70
2022-11-22T01:50:34.894Z,0.85
2022-11-22T01:53:06.373Z,0.40
2022-11-22T01:55:40.127Z,0.50
2022-11-22T01:58:12.283Z,0.60
2022-11-22T02:00:41.555Z,1.90
2022-11-22T02:03:11.724Z,0.40
2022-11-22T02:05:44.338Z,0.43
2022-11-22T02:08:16.707Z,0.40
2022-11-22T02:10:47.416Z,0.90
2022-11-22T02:13:21.347Z,0.70
2022-11-22T02:15:53.604Z,0.60
2022-11-22T02:18:23.423Z,0.65
2022-11-22T02:20:52.695Z,0.45
2022-11-22T02:23:26.018Z,0.50
2022-11-22T02:26:00.480Z,0.50
2022-11-22T02:28:35.968Z,0.50
2022-11-22T02:31:06.168Z,0.50
2022-11-22T02:33:35.521Z,0.60
2022-11-22T02:36:05.646Z,0.40
2022-11-22T02:38:36.580Z,0.40
2022-11-22T02:41:09.873Z,0.30
2022-11-22T02:43:44.886Z,0.60
2022-11-22T02:46:21.160Z,0.40
2022-11-22T02:48:51.833Z,0.63
2022-11-22T02:51:21.803Z,0.50
2022-11-22T02:53:52.508Z,0.60
2022-11-22T02:56:23.237Z,0.70
2022-11-22T02:58:52.776Z,1.08
2022-11-22T03:01:22.715Z,0.50
2022-11-22T03:03:52.154Z,1.00
2022-11-22T03:06:21.685Z,0.50
2022-11-22T03:08:56.071Z,0.30
2022-11-22T03:11:27.288Z,0.90
2022-11-22T03:13:56.725Z,1.00
2022-11-22T03:16:26.230Z,0.45
2022-11-22T03:19:00.012Z,0.20
2022-11-22T03:21:29.437Z,0.60
2022-11-22T03:23:58.872Z,1.20
2022-11-22T03:26:29.701Z,0.55
2022-11-22T03:28:59.022Z,0.40
2022-11-22T03:31:29.253Z,0.60
2022-11-22T03:33:58.901Z,0.35
2022-11-22T03:36:28.240Z,0.70
2022-11-22T03:38:57.857Z,0.40
2022-11-22T03:41:29.875Z,0.60
2022-11-22T03:43:59.243Z,0.20
2022-11-22T03:46:28.632Z,0.45
2022-11-22T03:49:00.627Z,0.30
2022-11-22T03:51:30.479Z,0.60
2022-11-22T03:54:00.101Z,0.50
2022-11-22T03:56:30.662Z,0.40
2022-11-22T03:59:00.033Z,0.55
2022-11-22T04:01:30.057Z,0.60
2022-11-22T04:03:59.430Z,0.60
2022-11-22T04:06:29.197Z,0.30
2022-11-22T04:08:58.622Z,0.52
2022-11-22T04:11:27.875Z,1.60
2022-11-22T04:14:16.556Z,1.10
2022-11-22T04:16:45.989Z,0.60
2022-11-22T04:19:15.528Z,0.68
2022-11-22T04:21:43.644Z,0.50
2022-11-22T04:24:31.240Z,0.50
2022-11-22T04:27:00.718Z,0.40
2022-11-22T04:29:31.606Z,0.65
2022-11-22T04:32:18.948Z,1.45
2022-11-22T04:34:48.124Z,0.25
2022-11-22T04:37:17.862Z,0.50
2022-11-22T04:39:47.198Z,0.40
2022-11-22T04:42:45.290Z,0.60
2022-11-22T04:45:18.779Z,0.40
2022-11-22T04:48:00.753Z,0.30
2022-11-22T04:50:50.418Z,0.50
2022-11-22T04:53:20.458Z,0.40
2022-11-22T04:55:52.579Z,0.63
2022-11-22T04:58:22.053Z,0.65
2022-11-22T05:00:52.812Z,0.52
2022-11-22T05:03:22.240Z,0.70
2022-11-22T05:05:51.718Z,0.50
2022-11-22T05:08:21.424Z,0.55
2022-11-22T05:11:00.126Z,0.95
2022-11-22T05:13:30.818Z,0.30
2022-11-22T05:16:02.360Z,1.08
2022-11-22T05:18:31.845Z,0.70
2022-11-22T05:21:08.687Z,0.50
2022-11-22T05:23:55.539Z,1.38
2022-11-22T05:26:26.171Z,0.70
2022-11-22T05:28:58.496Z,0.30
2022-11-22T05:31:30.055Z,0.93
2022-11-22T05:34:04.230Z,0.57
2022-11-22T05:36:44.410Z,0.63
2022-11-22T05:39:13.854Z,0.77
2022-11-22T05:41:56.140Z,0.30
2022-11-22T05:44:25.999Z,0.75
2022-11-22T05:46:57.277Z,0.60
2022-11-22T05:49:26.816Z,0.70
2022-11-22T05:52:02.241Z,0.30
2022-11-22T05:54:32.744Z,1.25
2022-11-22T05:57:08.678Z,0.30
2022-11-22T05:59:43.784Z,0.55
2022-11-22T06:02:18.040Z,0.40
2022-11-22T06:04:53.328Z,0.40
2022-11-22T06:07:23.065Z,0.50
2022-11-22T06:09:52.950Z,0.30
2022-11-22T06:12:22.429Z,0.52
2022-11-22T06:14:54.932Z,0.30
2022-11-22T06:17:27.516Z,0.22
2022-11-22T06:20:01.260Z,0.20
2022-11-22T06:22:34.171Z,0.40
2022-11-22T06:25:03.696Z,0.47
2022-11-22T06:27:33.312Z,0.57
2022-11-22T06:30:11.251Z,1.65
2022-11-22T06:32:44.590Z,0.22
2022-11-22T06:35:16.202Z,0.65
2022-11-22T06:37:45.943Z,1.00
2022-11-22T06:40:24.516Z,0.40
2022-11-22T06:42:54.176Z,0.50
2022-11-22T06:45:23.551Z,0.45
2022-11-22T06:47:54.675Z,0.45
2022-11-22T06:50:27.403Z,0.30
2022-11-22T06:52:56.983Z,0.40
2022-11-22T06:55:49.609Z,0.40
2022-11-22T06:58:21.592Z,0.45
2022-11-22T07:00:51.107Z,0.43
2022-11-22T07:03:22.026Z,0.60
2022-11-22T07:05:52.426Z,0.63
2022-11-22T07:08:21.782Z,0.32
2022-11-22T07:10:53.863Z,0.50
2022-11-22T07:13:27.107Z,0.43
2022-11-22T07:15:59.297Z,0.73
2022-11-22T07:18:32.562Z,0.70
2022-11-22T07:21:10.913Z,0.40
2022-11-22T07:23:42.376Z,0.20
2022-11-22T07:26:12.100Z,0.40
2022-11-22T07:28:43.910Z,1.23
2022-11-22T07:31:17.135Z,1.23
2022-11-22T07:33:47.910Z,0.85
2022-11-22T07:36:18.603Z,0.57
2022-11-22T07:38:49.315Z,1.00
2022-11-22T07:41:19.602Z,0.50
2022-11-22T07:43:57.930Z,0.30
2022-11-22T07:46:29.841Z,1.98
2022-11-22T07:49:01.492Z,0.47
2022-11-22T07:51:31.343Z,0.60
2022-11-22T07:54:00.748Z,1.38
2022-11-22T07:56:30.043Z,0.60
2022-11-22T07:58:59.259Z,0.65
2022-11-22T08:01:28.327Z,0.45
2022-11-22T08:03:58.196Z,0.40
2022-11-22T08:06:28.556Z,0.50
2022-11-22T08:09:02.062Z,0.77
2022-11-22T08:11:31.737Z,0.63
2022-11-22T08:14:00.685Z,0.50
2022-11-22T08:16:29.675Z,0.30
2022-11-22T08:18:58.708Z,1.08
2022-11-22T08:21:29.447Z,0.70
2022-11-22T08:24:00.148Z,0.50
2022-11-22T08:26:30.076Z,0.70
2022-11-22T08:28:59.659Z,0.75
2022-11-22T08:31:29.421Z,0.63
2022-11-22T08:34:01.786Z,0.50
2022-11-22T08:36:32.642Z,1.65
2022-11-22T08:39:05.211Z,1.00
2022-11-22T08:41:34.796Z,1.08
2022-11-22T08:44:04.150Z,0.40
2022-11-22T08:46:33.506Z,0.50
2022-11-22T08:49:06.597Z,0.82
2022-11-22T08:51:37.641Z,0.57
2022-11-22T08:54:07.224Z,0.47
2022-11-22T08:56:36.504Z,0.75
2022-11-22T08:59:05.971Z,0.75
2022-11-22T09:01:35.250Z,0.80
2022-11-22T09:04:09.513Z,0.63
2022-11-22T09:09:37.395Z,0.90
2022-11-22T09:12:08.340Z,0.75
2022-11-22T09:14:38.000Z,0.50
2022-11-22T09:17:14.633Z,0.50
2022-11-22T09:19:47.185Z,0.60
2022-11-22T09:22:18.043Z,0.60
2022-11-22T09:24:49.592Z,0.77
2022-11-22T09:27:20.312Z,0.75
2022-11-22T09:29:49.392Z,0.60
2022-11-22T09:32:19.059Z,0.50
2022-11-22T09:34:49.719Z,0.45
2022-11-22T09:37:29.589Z,0.40
2022-11-22T09:40:05.455Z,0.70
2022-11-22T09:42:49.823Z,0.60
2022-11-22T09:45:37.230Z,0.60
2022-11-22T09:48:15.827Z,0.82
2022-11-22T09:50:50.765Z,0.50
2022-11-22T09:53:27.244Z,0.32
2022-11-22T09:55:59.422Z,1.17
2022-11-22T10:01:02.571Z,0.43
2022-11-22T10:03:41.630Z,0.35
2022-11-22T10:06:17.230Z,0.30
2022-11-22T10:08:50.548Z,0.40
2022-11-22T10:11:30.890Z,0.30
2022-11-22T10:14:07.110Z,0.50
2022-11-22T10:16:45.881Z,0.52
2022-11-22T10:19:17.497Z,0.38
2022-11-22T10:21:50.876Z,0.63
2022-11-22T10:24:24.493Z,0.60
2022-11-22T10:26:55.159Z,0.60
2022-11-22T10:29:30.591Z,0.35
2022-11-22T10:32:07.735Z,0.40
2022-11-22T10:34:53.327Z,0.40
2022-11-22T10:37:27.172Z,0.38
2022-11-22T10:40:11.305Z,0.40
2022-11-22T10:42:55.317Z,1.17
2022-11-22T10:45:30.485Z,0.40
2022-11-22T10:48:08.195Z,0.57
2022-11-22T10:50:44.552Z,0.40
2022-11-22T10:53:17.739Z,1.60
2022-11-22T10:55:55.036Z,0.65
2022-11-22T10:58:36.718Z,0.77
2022-11-22T11:01:12.634Z,0.70
2022-11-22T11:03:45.591Z,0.50
2022-11-22T11:06:33.333Z,0.75
2022-11-22T11:10:03.383Z,1.15
2022-11-22T11:11:58.032Z,0.80
2022-11-22T11:14:29.713Z,0.82
2022-11-22T11:17:01.345Z,1.15
2022-11-22T11:19:32.576Z,1.25
2022-11-22T11:22:11.131Z,0.93
2022-11-22T11:24:50.780Z,0.70
2022-11-22T11:27:32.701Z,1.35
2022-11-22T11:30:03.365Z,0.88
2022-11-22T11:32:52.456Z,0.50
2022-11-22T11:35:22.855Z,0.98
2022-11-22T11:37:52.421Z,0.73
2022-11-22T11:40:45.840Z,0.80
2022-11-22T11:43:21.199Z,1.05
2022-11-22T11:45:50.968Z,0.93
2022-11-22T11:48:29.486Z,0.73
2022-11-22T11:51:09.674Z,0.88
2022-11-22T11:53:40.180Z,1.30
2022-11-22T11:56:22.995Z,0.70
2022-11-22T11:58:53.256Z,0.60
2022-11-22T12:01:22.799Z,0.60
2022-11-22T12:03:57.819Z,0.73
2022-11-22T12:06:29.837Z,0.52
2022-11-22T12:11:34.631Z,0.60
2022-11-22T12:14:21.966Z,0.65
2022-11-22T12:16:54.559Z,0.77
2022-11-22T12:19:29.613Z,1.30
2022-11-22T12:22:07.886Z,0.80
2022-11-22T12:25:09.765Z,0.95
2022-11-22T12:27:33.187Z,1.02
2022-11-22T12:30:04.574Z,1.05
2022-11-22T12:32:39.556Z,0.90
2022-11-22T12:35:14.496Z,0.95
2022-11-22T12:37:46.816Z,1.15
2022-11-22T12:40:18.429Z,1.02
2022-11-22T12:42:50.067Z,1.23
2022-11-22T12:45:24.634Z,0.80
2022-11-22T12:47:54.971Z,0.80
2022-11-22T12:50:29.203Z,0.90
2022-11-22T12:53:06.736Z,0.93
2022-11-22T12:55:42.401Z,0.60
2022-11-22T12:58:19.731Z,1.00
2022-11-22T13:00:58.389Z,2.22
2022-11-22T13:03:34.066Z,0.90
2022-11-22T13:06:09.153Z,1.52
2022-11-22T13:08:40.614Z,1.02
2022-11-22T13:11:15.683Z,1.20
2022-11-22T13:13:46.154Z,1.00
2022-11-22T13:16:15.672Z,1.10
2022-11-22T13:18:47.474Z,0.70
2022-11-22T13:21:23.541Z,1.20
2022-11-22T13:24:07.384Z,2.13
2022-11-22T13:26:40.015Z,1.23
2022-11-22T13:29:13.730Z,1.17
2022-11-22T13:31:57.715Z,0.98
2022-11-22T13:34:30.149Z,0.85
2022-11-22T13:37:10.258Z,1.85
2022-11-22T13:40:05.961Z,1.27
2022-11-22T13:42:40.347Z,1.67
2022-11-22T13:45:33.287Z,0.68
2022-11-22T13:51:04.639Z,1.10
2022-11-22T13:53:37.077Z,1.45
2022-11-22T13:56:32.974Z,1.23
2022-11-22T13:59:15.104Z,0.82
2022-11-22T14:01:59.479Z,0.80
2022-11-22T14:04:43.381Z,1.20
2022-11-22T14:07:24.893Z,1.20
2022-11-22T14:10:09.957Z,2.17
2022-11-22T14:12:52.868Z,0.57
2022-11-22T14:15:36.836Z,0.85
2022-11-22T14:18:26.981Z,0.85
2022-11-22T14:21:06.227Z,0.60
2022-11-22T14:23:46.125Z,0.60
2022-11-22T14:26:25.338Z,0.60
2022-11-22T14:29:14.003Z,0.50
2022-11-22T14:31:44.023Z,0.68
2022-11-22T14:34:17.585Z,0.55
2022-11-22T14:36:47.895Z,1.05
2022-11-22T14:39:39.470Z,1.25
2022-11-22T14:42:26.969Z,0.73
2022-11-22T14:44:58.352Z,1.55
2022-11-22T14:47:28.008Z,0.60
2022-11-22T14:50:02.801Z,0.85
2022-11-22T14:52:36.579Z,0.60
2022-11-22T14:55:08.758Z,0.65
2022-11-22T14:57:51.141Z,0.73
2022-11-22T15:00:26.178Z,1.27
2022-11-22T15:03:11.400Z,0.60
2022-11-22T15:09:22.563Z,0.52
2022-11-22T15:09:23.877Z,0.75
2022-11-22T15:11:54.424Z,0.50
2022-11-22T15:14:48.694Z,1.00
2022-11-22T15:58:12.672Z,0.88
2022-11-22T16:00:45.579Z,1.35
2022-11-22T16:03:24.258Z,1.00
2022-11-22T16:06:07.516Z,1.40
2022-11-22T16:08:41.325Z,2.15
2022-11-22T16:11:23.543Z,1.70
2022-11-22T16:16:26.106Z,1.40
2022-11-22T16:19:15.846Z,4.40
2022-11-22T16:21:57.391Z,1.58
2022-11-22T16:24:29.020Z,1.75
2022-11-22T16:26:59.057Z,2.13
2022-11-22T16:29:32.362Z,2.00
2022-11-22T16:32:05.455Z,1.52
2022-11-22T16:34:34.916Z,1.83
2022-11-22T16:37:22.238Z,1.80
2022-11-22T16:39:53.382Z,2.75
2022-11-22T16:42:25.892Z,2.65
2022-11-22T16:44:58.363Z,2.83
2022-11-22T16:47:31.757Z,2.65
2022-11-22T16:50:01.241Z,2.20
2022-11-22T16:52:31.904Z,2.15
2022-11-22T16:55:03.257Z,2.13
2022-11-22T16:57:32.643Z,2.50
2022-11-22T17:00:02.033Z,2.65
2022-11-22T17:02:31.295Z,2.20
2022-11-22T17:05:00.563Z,3.42
2022-11-22T17:07:32.368Z,3.38
2022-11-22T17:12:33.809Z,4.70
2022-11-22T17:15:03.748Z,5.20
2022-11-22T17:17:33.016Z,6.90
2022-11-22T17:20:02.253Z,6.32
2022-11-22T17:22:32.352Z,7.20
2022-11-22T17:25:01.494Z,6.80
2022-11-22T17:27:33.317Z,5.50
2022-11-22T17:32:31.599Z,3.92
2022-11-22T17:35:00.604Z,4.50
2022-11-22T17:37:32.818Z,5.43
2022-11-22T17:40:01.844Z,4.15
2022-11-22T17:42:36.780Z,4.65
2022-11-22T17:45:12.152Z,5.15
2022-11-22T17:47:42.061Z,4.70
2022-11-22T17:50:13.010Z,5.18
2022-11-22T17:52:42.307Z,4.45
2022-11-22T17:55:14.651Z,4.10
2022-11-22T17:57:45.364Z,4.47
2022-11-22T18:00:17.270Z,3.67
2022-11-22T18:02:46.845Z,4.60
2022-11-22T18:05:16.237Z,3.83
2022-11-22T18:07:45.729Z,4.40
2022-11-22T18:10:14.919Z,5.57
2022-11-22T18:12:58.640Z,7.28
2022-11-22T18:15:34.732Z,5.28
2022-11-22T18:18:06.419Z,5.68
2022-11-22T18:20:38.791Z,5.00
2022-11-22T18:23:08.099Z,5.20
2022-11-22T18:25:43.033Z,5.75
2022-11-22T18:28:15.199Z,5.75
2022-11-22T18:30:47.995Z,6.55
2022-11-22T18:33:20.167Z,6.30
2022-11-22T18:35:56.328Z,6.30
2022-11-22T18:38:35.871Z,5.15
2022-11-22T18:43:43.332Z,6.20
2022-11-22T18:46:17.338Z,4.43
2022-11-22T18:48:48.105Z,5.30
2022-11-22T18:51:19.807Z,4.57
2022-11-22T18:53:49.678Z,6.72
2022-11-22T18:56:19.136Z,6.30
2022-11-22T18:58:54.851Z,6.85
2022-11-22T19:01:29.076Z,5.72
2022-11-22T19:04:06.502Z,7.22
2022-11-22T19:06:35.836Z,6.65
2022-11-22T19:09:05.331Z,7.75
2022-11-22T19:11:35.488Z,7.22
2022-11-22T19:14:06.175Z,7.82
2022-11-22T19:16:35.387Z,5.70
2022-11-22T19:19:04.457Z,6.35
2022-11-22T19:21:33.873Z,7.03
2022-11-22T19:24:03.374Z,6.40
2022-11-22T19:26:35.197Z,6.18
2022-11-22T19:29:05.891Z,6.28
2022-11-22T19:31:36.628Z,6.55
2022-11-22T19:34:06.029Z,6.10
2022-11-22T19:36:36.262Z,7.55
2022-11-22T19:39:06.144Z,8.60
2022-11-22T19:41:35.631Z,6.85
2022-11-22T19:44:06.073Z,9.13
2022-11-22T19:46:36.301Z,9.38
2022-11-22T19:49:06.126Z,9.68
2022-11-22T19:51:36.291Z,6.50
2022-11-22T19:54:05.396Z,7.22
2022-11-22T19:56:35.078Z,7.68
2022-11-22T19:59:06.633Z,7.25
2022-11-22T20:01:37.317Z,6.80
2022-11-22T20:04:07.434Z,7.32
2022-11-22T20:06:37.188Z,7.88
2022-11-22T20:09:10.145Z,7.18
2022-11-22T20:11:41.404Z,7.55
2022-11-22T20:14:11.372Z,7.82
2022-11-22T20:16:43.183Z,7.95
2022-11-22T20:21:43.525Z,6.93
2022-11-22T20:24:14.341Z,8.00
2022-11-22T20:26:47.498Z,8.18
2022-11-22T20:29:28.752Z,9.18
2022-11-22T20:32:03.071Z,7.93
2022-11-22T20:34:40.405Z,7.97
2022-11-22T20:37:31.164Z,7.95
2022-11-22T20:40:00.635Z,10.75
2022-11-22T20:42:37.478Z,9.18
2022-11-22T20:45:10.691Z,7.47
2022-11-22T20:47:43.381Z,7.47
2022-11-22T20:50:13.635Z,7.90
2022-11-22T20:52:43.074Z,8.85
2022-11-22T20:55:12.924Z,7.50
2022-11-22T20:57:49.176Z,7.57
2022-11-22T21:00:21.325Z,7.70
2022-11-22T21:03:27.076Z,6.70
2022-11-22T21:06:10.108Z,6.85
2022-11-22T21:08:43.910Z,6.75
2022-11-22T21:11:15.941Z,7.30
2022-11-22T21:14:03.876Z,9.17
2022-11-22T21:16:35.187Z,6.45
2022-11-22T21:19:07.891Z,7.28
2022-11-22T21:21:42.498Z,7.47
2022-11-22T21:24:21.253Z,7.75
2022-11-22T21:27:03.112Z,7.55
2022-11-22T21:29:47.343Z,8.10
2022-11-22T21:32:20.401Z,6.90
2022-11-22T21:34:51.854Z,7.60
2022-11-22T21:37:28.159Z,8.02
2022-11-22T21:40:04.314Z,7.78
2022-11-22T21:42:36.486Z,7.10
2022-11-22T21:45:06.897Z,6.57
2022-11-22T21:47:43.956Z,6.70
2022-11-22T21:50:16.428Z,6.70
2022-11-22T21:52:50.888Z,6.22
2022-11-22T21:55:23.101Z,6.65
2022-11-22T21:57:55.247Z,7.05
2022-11-22T22:00:27.847Z,6.55
2022-11-22T22:02:58.233Z,6.80
2022-11-22T22:05:32.294Z,6.72
2022-11-22T22:08:04.203Z,7.03
2022-11-22T22:10:35.059Z,7.88
2022-11-22T22:13:06.995Z,8.25
2022-11-22T22:15:37.876Z,7.53
2022-11-22T22:18:09.896Z,7.00
2022-11-22T22:20:40.989Z,7.20
2022-11-22T22:23:10.818Z,7.75
2022-11-22T22:25:41.587Z,7.38
2022-11-22T22:28:11.194Z,6.77
2022-11-22T22:30:43.103Z,7.82
2022-11-22T22:33:12.518Z,6.90
2022-11-22T22:35:43.408Z,6.55
2022-11-22T22:38:12.823Z,7.03
2022-11-22T22:40:42.204Z,7.10
2022-11-22T22:43:17.869Z,7.07
2022-11-22T22:45:49.516Z,6.40
2022-11-22T22:48:22.124Z,7.35
2022-11-22T22:50:53.012Z,6.95
2022-11-22T22:53:26.571Z,7.17
2022-11-22T22:55:56.222Z,6.18
2022-11-22T22:58:25.728Z,7.63
2022-11-22T23:00:55.147Z,7.80
2022-11-22T23:03:29.501Z,7.47
2022-11-22T23:06:00.550Z,6.78
2022-11-22T23:08:30.236Z,7.47
2022-11-22T23:11:04.053Z,6.50
2022-11-22T23:13:33.354Z,7.43
2022-11-22T23:16:02.558Z,6.28
2022-11-22T23:18:37.502Z,7.53
2022-11-22T23:21:09.859Z,6.22
2022-11-22T23:23:39.088Z,7.57
2022-11-22T23:26:10.191Z,6.28
2022-11-22T23:28:39.653Z,7.45
2022-11-22T23:31:09.514Z,6.60
2022-11-22T23:33:38.620Z,6.35
2022-11-22T23:36:10.538Z,6.18
2022-11-22T23:38:39.864Z,8.85
2022-11-22T23:41:09.233Z,7.72
2022-11-22T23:43:41.684Z,7.90
2022-11-22T23:46:16.696Z,7.28
2022-11-22T23:48:50.265Z,6.35
2022-11-22T23:51:20.726Z,6.90
2022-11-22T23:53:50.834Z,6.18
2022-11-22T23:56:23.591Z,7.57
2022-11-22T23:58:53.755Z,7.50
